createdAt,value
2018-12-20T00:02:05.212Z,25.23
2018-12-20T00:06:10.924Z,26.35
2018-12-20T00:10:16.581Z,24.60
2018-12-20T00:14:29.745Z,26.42
2018-12-20T00:18:30.867Z,26.93
2018-12-20T00:22:36.655Z,25.77
2018-12-20T00:26:42.427Z,28.02
2018-12-20T00:30:48.033Z,30.30
2018-12-20T00:34:53.797Z,29.25
2018-12-20T00:38:59.439Z,29.63
2018-12-20T00:43:05.131Z,28.23
2018-12-20T00:47:10.791Z,29.12
2018-12-20T00:51:16.716Z,29.00
2018-12-20T00:55:22.353Z,27.67
2018-12-20T00:59:28.148Z,28.50
2018-12-20T01:03:33.860Z,29.10
2018-12-20T01:07:39.762Z,27.32
2018-12-20T01:11:45.923Z,27.05
2018-12-20T01:15:51.739Z,28.77
2018-12-20T01:19:57.707Z,29.20
2018-12-20T01:24:05.338Z,26.30
2018-12-20T01:28:11.837Z,28.60
2018-12-20T01:32:17.424Z,27.35
2018-12-20T01:36:23.131Z,29.30
2018-12-20T01:40:28.844Z,28.95
2018-12-20T01:44:34.566Z,29.42
2018-12-20T01:48:41.056Z,28.53
2018-12-20T01:52:46.647Z,26.57
2018-12-20T01:56:52.811Z,28.00
2018-12-20T02:00:58.581Z,27.27
2018-12-20T02:05:05.021Z,26.27
2018-12-20T02:09:11.683Z,26.68
2018-12-20T02:13:17.276Z,25.05
2018-12-20T02:17:22.928Z,27.50
2018-12-20T02:21:28.697Z,25.45
2018-12-20T02:25:34.528Z,27.87
2018-12-20T02:29:40.289Z,27.17
2018-12-20T02:33:46.170Z,26.02
2018-12-20T02:37:52.379Z,26.52
2018-12-20T02:41:58.532Z,26.42
2018-12-20T02:46:04.268Z,28.52
2018-12-20T02:50:11.036Z,32.00
2018-12-20T02:54:16.763Z,28.38
2018-12-20T02:58:22.566Z,28.42
2018-12-20T03:02:28.441Z,25.92
2018-12-20T03:06:34.151Z,28.55
2018-12-20T03:10:40.047Z,27.90
2018-12-20T03:14:45.645Z,27.42
2018-12-20T03:18:51.446Z,26.12
2018-12-20T03:22:57.132Z,26.52
2018-12-20T03:27:02.941Z,26.68
2018-12-20T03:31:09.157Z,26.75
2018-12-20T03:35:17.098Z,28.98
2018-12-20T03:39:22.980Z,28.10
2018-12-20T03:43:29.052Z,27.48
2018-12-20T03:47:34.620Z,29.25
2018-12-20T03:51:40.554Z,28.27
2018-12-20T03:55:46.255Z,31.15
2018-12-20T03:59:52.189Z,28.45
2018-12-20T04:03:58.438Z,30.37
2018-12-20T04:08:04.307Z,29.52
2018-12-20T04:12:10.014Z,29.30
2018-12-20T04:16:16.112Z,30.20
2018-12-20T04:20:22.578Z,29.60
2018-12-20T04:24:28.465Z,29.32
2018-12-20T04:28:34.210Z,28.67
2018-12-20T04:32:39.909Z,28.02
2018-12-20T04:36:45.535Z,29.20
2018-12-20T04:40:51.509Z,25.05
2018-12-20T04:44:57.637Z,26.17
2018-12-20T04:49:03.279Z,27.50
2018-12-20T04:53:09.066Z,27.30
2018-12-20T04:57:14.888Z,26.45
2018-12-20T05:01:21.064Z,28.92
2018-12-20T05:05:27.361Z,32.35
2018-12-20T05:09:33.117Z,28.50
2018-12-20T05:13:38.783Z,31.85
2018-12-20T05:17:46.491Z,31.35
2018-12-20T05:21:52.623Z,29.70
2018-12-20T05:25:58.646Z,31.70
2018-12-20T05:30:05.450Z,28.15
2018-12-20T05:34:11.199Z,28.10
2018-12-20T05:38:16.875Z,27.52
2018-12-20T05:42:22.657Z,27.48
2018-12-20T05:46:28.525Z,26.55
2018-12-20T05:50:35.467Z,24.70
2018-12-20T05:54:41.250Z,24.15
2018-12-20T05:58:46.919Z,23.67
2018-12-20T06:02:52.537Z,23.90
2018-12-20T06:06:58.888Z,22.30
2018-12-20T06:11:05.173Z,22.17
2018-12-20T06:15:11.193Z,21.17
2018-12-20T06:19:17.438Z,22.17
2018-12-20T06:23:24.783Z,19.23
2018-12-20T06:27:31.901Z,18.40
2018-12-20T06:31:37.611Z,16.75
2018-12-20T06:35:43.271Z,16.85
2018-12-20T06:39:49.682Z,16.67
2018-12-20T06:43:55.405Z,17.52
2018-12-20T06:48:01.634Z,17.05
2018-12-20T06:52:09.146Z,16.87
2018-12-20T06:56:15.742Z,16.27
2018-12-20T07:00:22.268Z,16.73
2018-12-20T07:04:30.204Z,15.83
2018-12-20T07:08:36.443Z,16.57
2018-12-20T07:12:42.154Z,16.10
2018-12-20T07:16:47.809Z,15.93
2018-12-20T07:20:53.534Z,16.02
2018-12-20T07:24:59.341Z,16.02
2018-12-20T07:29:05.128Z,14.90
2018-12-20T07:33:10.834Z,15.08
2018-12-20T07:37:16.723Z,15.00
2018-12-20T07:41:22.412Z,14.30
2018-12-20T07:45:29.373Z,14.55
2018-12-20T07:49:35.040Z,14.40
2018-12-20T07:53:40.550Z,14.73
2018-12-20T07:57:47.066Z,14.18
2018-12-20T08:01:52.663Z,14.83
2018-12-20T08:05:58.330Z,13.70
2018-12-20T08:10:04.345Z,13.93
2018-12-20T08:14:10.027Z,13.98
2018-12-20T08:18:15.752Z,13.70
2018-12-20T08:22:21.425Z,13.38
2018-12-20T08:26:27.176Z,12.35
2018-12-20T08:30:32.979Z,13.03
2018-12-20T08:34:38.544Z,12.50
2018-12-20T08:38:46.996Z,11.30
2018-12-20T08:42:52.877Z,11.83
2018-12-20T08:46:59.192Z,11.28
2018-12-20T08:51:04.933Z,11.35
2018-12-20T08:55:11.167Z,10.58
2018-12-20T08:59:17.086Z,10.78
2018-12-20T09:03:22.745Z,10.50
2018-12-20T09:07:28.400Z,10.08
2018-12-20T09:11:34.046Z,9.18
2018-12-20T09:15:40.222Z,8.90
2018-12-20T09:19:46.485Z,9.23
2018-12-20T09:23:52.304Z,8.05
2018-12-20T09:27:58.423Z,7.45
2018-12-20T09:32:04.244Z,8.55
2018-12-20T09:36:10.798Z,7.10
2018-12-20T09:40:16.425Z,7.17
2018-12-20T09:44:22.198Z,6.95
2018-12-20T09:48:27.905Z,7.53
2018-12-20T09:52:33.444Z,6.58
2018-12-20T09:56:39.080Z,7.03
2018-12-20T10:00:45.114Z,6.97
2018-12-20T10:04:50.899Z,6.92
2018-12-20T10:08:57.105Z,6.20
2018-12-20T10:13:02.916Z,5.90
2018-12-20T10:17:08.514Z,6.33
2018-12-20T10:21:14.928Z,6.08
2018-12-20T10:25:20.467Z,5.67
2018-12-20T10:29:26.207Z,5.17
2018-12-20T10:33:31.935Z,6.37
2018-12-20T10:37:37.819Z,5.12
2018-12-20T10:41:43.587Z,5.40
2018-12-20T10:45:49.666Z,6.00
2018-12-20T10:49:56.092Z,6.15
2018-12-20T10:54:01.966Z,6.78
2018-12-20T10:58:09.414Z,5.60
2018-12-20T11:02:20.419Z,5.65
2018-12-20T11:06:31.323Z,5.55
2018-12-20T11:10:37.160Z,5.67
2018-12-20T11:14:42.990Z,6.15
2018-12-20T11:18:48.867Z,6.22
2018-12-20T11:22:55.391Z,5.72
2018-12-20T11:27:01.382Z,6.00
2018-12-20T11:31:07.344Z,5.97
2018-12-20T11:35:13.411Z,5.00
2018-12-20T11:39:19.918Z,5.78
2018-12-20T11:43:25.871Z,5.90
2018-12-20T11:47:32.157Z,6.40
2018-12-20T11:51:37.791Z,5.47
2018-12-20T11:55:43.463Z,6.70
2018-12-20T11:59:49.057Z,12.05
2018-12-20T12:03:57.554Z,4.67
2018-12-20T12:12:24.860Z,4.93
2018-12-20T12:16:30.652Z,5.17
2018-12-20T12:20:36.308Z,4.00
2018-12-20T12:24:43.037Z,4.17
2018-12-20T12:28:48.827Z,3.77
2018-12-20T12:32:54.806Z,4.30
2018-12-20T12:37:00.979Z,3.25
2018-12-20T12:41:06.808Z,3.62
2018-12-20T12:45:16.384Z,3.90
2018-12-20T12:49:24.087Z,4.35
2018-12-20T12:53:30.707Z,3.80
2018-12-20T12:57:38.176Z,4.05
2018-12-20T13:01:44.314Z,4.25
2018-12-20T13:05:50.344Z,4.15
2018-12-20T13:09:56.292Z,4.42
2018-12-20T13:14:01.877Z,4.45
2018-12-20T13:18:13.778Z,3.60
2018-12-20T13:22:16.386Z,3.62
2018-12-20T13:26:22.079Z,4.10
2018-12-20T13:30:27.986Z,4.28
2018-12-20T13:34:33.770Z,3.50
2018-12-20T13:38:39.491Z,3.50
2018-12-20T13:42:45.332Z,3.75
2018-12-20T13:46:51.157Z,3.45
2018-12-20T13:50:56.783Z,3.60
2018-12-20T13:55:02.543Z,3.35
2018-12-20T13:59:08.192Z,3.65
2018-12-20T14:03:13.811Z,3.10
2018-12-20T14:07:20.192Z,3.33
2018-12-20T14:11:26.048Z,3.50
2018-12-20T14:15:32.180Z,3.72
2018-12-20T14:19:37.775Z,3.70
2018-12-20T14:23:44.005Z,3.77
2018-12-20T14:27:49.606Z,3.65
2018-12-20T14:31:55.266Z,3.17
2018-12-20T14:36:01.436Z,3.37
2018-12-20T14:40:09.810Z,4.00
2018-12-20T14:44:15.526Z,3.65
2018-12-20T14:48:29.002Z,3.12
2018-12-20T14:52:34.724Z,3.10
2018-12-20T14:56:40.492Z,4.00
2018-12-20T15:00:46.117Z,3.27
2018-12-20T15:04:52.011Z,3.70
2018-12-20T15:08:58.128Z,3.60
2018-12-20T15:13:03.791Z,3.77
2018-12-20T15:17:09.924Z,3.30
2018-12-20T15:21:16.291Z,3.33
2018-12-20T15:25:22.582Z,3.12
2018-12-20T15:29:28.493Z,2.85
2018-12-20T15:33:34.371Z,3.47
2018-12-20T15:37:40.040Z,3.40
2018-12-20T15:41:45.764Z,3.35
2018-12-20T15:45:51.699Z,3.30
2018-12-20T15:49:57.459Z,3.27
2018-12-20T15:54:03.571Z,3.55
2018-12-20T15:58:09.249Z,3.75
2018-12-20T16:02:15.208Z,3.93
2018-12-20T16:06:20.841Z,3.40
2018-12-20T16:10:27.957Z,3.55
2018-12-20T16:14:33.751Z,4.03
2018-12-20T16:18:39.468Z,3.50
2018-12-20T16:22:45.381Z,3.92
2018-12-20T16:26:51.201Z,3.75
2018-12-20T16:30:57.067Z,4.53
2018-12-20T16:35:02.704Z,4.53
2018-12-20T16:39:08.820Z,4.28
2018-12-20T16:43:14.530Z,3.95
2018-12-20T16:47:20.380Z,4.72
2018-12-20T16:51:26.054Z,4.12
2018-12-20T16:55:31.690Z,4.70
2018-12-20T16:59:37.326Z,5.08
2018-12-20T17:03:43.519Z,5.37
2018-12-20T17:07:49.887Z,4.67
2018-12-20T17:11:56.020Z,5.25
2018-12-20T17:16:03.480Z,5.00
2018-12-20T17:20:10.203Z,5.37
2018-12-20T17:24:16.061Z,4.97
2018-12-20T17:28:22.008Z,5.17
2018-12-20T17:32:27.998Z,6.47
2018-12-20T17:36:33.864Z,5.42
2018-12-20T17:40:39.610Z,5.30
2018-12-20T17:44:45.399Z,4.45
2018-12-20T17:48:51.144Z,4.60
2018-12-20T17:52:56.772Z,5.25
2018-12-20T17:57:02.755Z,4.70
2018-12-20T18:01:08.555Z,4.58
2018-12-20T18:05:14.458Z,4.45
2018-12-20T18:09:21.504Z,5.40
2018-12-20T18:13:27.690Z,4.37
2018-12-20T18:17:33.851Z,4.65
2018-12-20T18:21:40.287Z,4.12
2018-12-20T18:25:47.631Z,4.90
2018-12-20T18:29:53.695Z,4.17
2018-12-20T18:34:01.071Z,4.08
2018-12-20T18:38:10.113Z,4.97
2018-12-20T18:42:16.792Z,4.22
2018-12-20T18:46:26.239Z,3.90
2018-12-20T18:50:33.751Z,3.70
2018-12-20T18:54:39.709Z,3.80
2018-12-20T18:58:46.675Z,4.92
2018-12-20T19:02:52.791Z,4.95
2018-12-20T19:06:58.723Z,3.83
2018-12-20T19:11:05.392Z,4.45
2018-12-20T19:15:11.656Z,4.35
2018-12-20T19:19:19.532Z,4.25
2018-12-20T19:23:25.186Z,4.78
2018-12-20T19:27:31.443Z,4.80
2018-12-20T19:31:38.178Z,4.30
2018-12-20T19:35:44.757Z,3.77
2018-12-20T19:39:55.349Z,4.60
2018-12-20T19:44:01.848Z,4.20
2018-12-20T19:48:10.643Z,3.75
2018-12-20T19:52:17.038Z,4.85
2018-12-20T19:56:23.226Z,4.53
2018-12-20T20:00:29.472Z,4.00
2018-12-20T20:04:35.856Z,4.50
2018-12-20T20:08:42.613Z,4.55
2018-12-20T20:12:49.638Z,4.50
2018-12-20T20:16:55.767Z,4.00
2018-12-20T20:21:02.516Z,4.35
2018-12-20T20:25:09.891Z,4.40
2018-12-20T20:29:16.369Z,4.10
2018-12-20T20:33:23.241Z,4.03
2018-12-20T20:37:29.829Z,4.33
2018-12-20T20:41:35.772Z,3.80
2018-12-20T20:45:41.833Z,3.80
2018-12-20T20:49:47.820Z,3.37
2018-12-20T20:53:54.082Z,3.72
2018-12-20T20:58:00.224Z,3.27
2018-12-20T21:02:09.701Z,3.42
2018-12-20T21:06:16.063Z,3.33
2018-12-20T21:10:29.260Z,3.72
2018-12-20T21:14:36.337Z,3.83
2018-12-20T21:18:42.443Z,34.43
2018-12-20T21:22:49.482Z,3.70
2018-12-20T21:26:55.553Z,3.27
2018-12-20T21:31:03.310Z,3.67
2018-12-20T21:35:09.630Z,4.40
2018-12-20T21:39:16.039Z,4.60
2018-12-20T21:43:24.363Z,3.62
2018-12-20T21:47:32.346Z,4.20
2018-12-20T21:51:40.049Z,4.35
2018-12-20T21:55:47.841Z,4.75
2018-12-20T22:00:01.201Z,4.87
2018-12-20T22:04:03.534Z,4.60
2018-12-20T22:08:10.860Z,4.00
2018-12-20T22:12:16.622Z,4.28
2018-12-20T22:16:23.965Z,4.45
2018-12-20T22:20:31.071Z,3.90
2018-12-20T22:24:37.753Z,4.17
2018-12-20T22:28:48.444Z,4.70
2018-12-20T22:32:54.475Z,3.87
2018-12-20T22:37:01.285Z,4.00
2018-12-20T22:41:07.082Z,4.03
2018-12-20T22:45:13.141Z,5.00
2018-12-20T22:49:20.147Z,3.98
2018-12-20T22:53:27.374Z,3.50
2018-12-20T22:57:34.193Z,3.40
2018-12-20T23:01:40.480Z,3.70
2018-12-20T23:05:46.774Z,4.12
2018-12-20T23:09:52.779Z,4.12
2018-12-20T23:13:58.630Z,3.55
2018-12-20T23:18:05.394Z,3.15
2018-12-20T23:22:11.558Z,3.55
2018-12-20T23:26:17.988Z,3.77
2018-12-20T23:30:24.152Z,6.87
2018-12-20T23:34:31.231Z,3.50
2018-12-20T23:38:38.083Z,3.58
2018-12-20T23:42:44.159Z,4.08
2018-12-20T23:46:51.222Z,4.42
2018-12-20T23:50:57.924Z,3.60
2018-12-20T23:55:04.395Z,3.33
2018-12-20T23:59:10.467Z,4.15
